Tiempo atmosférico en la estación meteorológica de Aragüés Del Puerto, Huesca (1120 m.)



Fecha
DESCASC
Temp. máxima en grados centígrados (hora)
DESCASC
Temp. mínima en grados centígrados (hora)
DESCASC
Temp. media en grados centígrados
DESCASC
Racha de viento máxima en m/sg (hora)
DESCASC
Velocidad máxima media en intervalos de 10 minutos(hora)
DESCASC
Precipitaciones diarias en mm
DESCASC
Precipitaciones de 00:00 a 06:00 en mm
DESCASC
Precipitaciones de 06:00 a 12:00 en mm
DESCASC
Precipitaciones de 12:00 a 18:00 en mm
DESCASC
Precipitaciones de 18:00 a 24:00 en mm
DESCASC
28-08-2018 31.5 (17:40) 18.6 (00:00) 25.1 -- (--) -- (--) 0 0 0 0 0
27-08-2018 30.6 (16:50) 13.6 (00:00) 22.1 7.78 (14:50) 4.44 (14:50) 0 0 0 0 0
23-09-2018 29.3 (15:50) 14.5 (07:40) 21.9 11.11 (19:20) 6.39 (19:20) 0 0 0 0 0
02-09-2018 29.2 (16:50) 13.5 (00:00) 21.4 13.33 (17:20) 5.28 (17:00) 0 0 0 0 0
01-09-2018 28.8 (17:30) 11.6 (00:00) 20.2 9.72 (18:50) 5.83 (19:20) 0 0 0 0 0
04-09-2018 28.5 (16:10) 14.8 (00:00) 21.7 13.06 (23:20) 8.06 (23:30) 3.8 0 0 0 3.8
20-09-2018 28.4 (17:00) 15.1 (08:00) 21.8 9.17 (17:30) 4.72 (02:40) 0 0 0 0 0
03-09-2018 28.3 (15:20) 15.2 (00:00) 21.7 8.06 (12:00) 4.72 (06:00) 0 0 0 0 0
29-08-2018 28.2 (15:10) 16 (00:00) 22.1 10.83 (17:50) 5.56 (17:20) 0 0 0 0 0
22-09-2018 28.1 (15:30) 12.9 (08:10) 20.5 12.5 (17:00) 5.28 (16:20) 0 0 0 0 0
17-09-2018 28.1 (15:10) 16 (07:30) 22.1 11.11 (21:00) 8.06 (21:00) 0 0 0 0 0
16-09-2018 28 (16:00) 13 (00:00) 20.5 8.89 (16:10) 4.72 (17:20) 0 0 0 0 0
30-08-2018 27.5 (15:50) 11.9 (00:00) 19.7 8.61 (18:10) 4.17 (16:00) 0 0 0 0 0
19-09-2018 27.4 (15:40) 12.8 (08:00) 20.1 10 (18:10) 4.17 (18:00) 0.2 0 0.2 0 0
18-09-2018 27.4 (15:20) 13.5 (23:59) 20.4 15.56 (17:40) 8.61 (19:00) 21.6 0 0 0 21.6
31-08-2018 27.2 (15:50) 11.2 (00:00) 19.2 8.06 (17:20) 5.28 (17:30) 0 0 0 0 0
21-09-2018 26.9 (15:00) 15.7 (23:40) 21.3 8.89 (18:20) 4.72 (00:30) 0 0 0 0 0
26-08-2018 26.7 (17:40) 7.9 (00:00) 17.3 8.33 (17:40) 5.28 (18:00) 0 0 0 0 0
10-09-2018 26.4 (16:30) 12.1 (00:00) 19.3 7.5 (14:20) 3.89 (14:40) 0 0 0 0 0
14-09-2018 26.2 (15:30) 11.2 (00:00) 18.7 8.61 (15:30) 5 (15:30) 0 0 0 0 0
13-09-2018 25.9 (16:30) 11.2 (00:00) 18.5 6.94 (15:40) 3.61 (16:40) 0 0 0 0 0
05-09-2018 25.8 (16:20) 12.6 (00:00) 19.2 15.83 (19:30) 6.39 (19:30) 3.6 1 0.2 0 2.4
11-09-2018 25.5 (13:40) 14.7 (00:00) 20.1 9.72 (15:30) 6.39 (15:30) 0 0 0 0 0
08-09-2018 25.1 (14:20) 14.6 (00:00) 19.9 9.17 (14:20) 5.83 (14:20) 0 0 0 0 0
07-09-2018 25 (17:10) 9.8 (00:00) 17.4 8.33 (15:10) 3.89 (15:50) 0 0 0 0 0
15-09-2018 24.8 (15:00) 12.1 (00:00) 18.4 6.39 (14:30) 3.89 (13:30) 0 0 0 0 0
09-09-2018 24.7 (14:50) 12.9 (00:00) 18.8 11.11 (07:40) 6.39 (07:30) 11.2 5.2 6 0 0
25-08-2018 23.7 (16:40) 7.6 (00:00) 15.7 9.72 (16:50) 5.28 (15:30) 0 0 0 0 0
06-09-2018 23 (17:10) 10.9 (00:00) 16.9 11.39 (19:50) 6.67 (21:10) 0 0 0 0 0
12-09-2018 22.3 (12:20) 13.8 (00:00) 18 10 (13:50) 6.11 (13:50) 0.8 0 0.2 0.6 0

Gráficas

Temp. máximas Temp. mínimas Temp. medias Precipitaciones Rachas de viento máximas Velocidades máximas media en intervalos de 10 minutos

Datos horarios

Fecha y hora oficial Temperatura (ºC) Velocidad del viento (km/h) Dirección del viento Racha (km/h) Dirección de racha Precipitación (mm) Presión (hPa) Tendencia (hPa) Humedad (%)
2018-09-23 23:00:00 18.8 5 Noroeste 15 Noroeste 0 908.7 1 55
2018-09-23 22:00:00 21.6 12 Norte 28 Nordeste 0 908.3 1 42
2018-09-23 21:00:00 21.8 14 Nordeste 32 Nordeste 0 908.1 1.1 44
2018-09-23 20:00:00 22.8 15 Nordeste 40 Norte 0 907.7 0.8 44
2018-09-23 19:00:00 25.3 9 Norte 29 Oeste 0 907.3 0.2 31
2018-09-23 18:00:00 27.8 14 Oeste 35 Oeste 0 907 -0.5 26
2018-09-23 17:00:00 29.3 10 Oeste 33 Noroeste 0 906.9 -1.2 26
2018-09-23 16:00:00 28.9 18 Sudoeste 35 Sudoeste 0 907.1 -1.4 28
2018-09-23 15:00:00 28.8 15 Oeste 36 Sudoeste 0 907.5 -1.4 27
2018-09-23 14:00:00 28 17 Sudoeste 27 Sudoeste 0 908.1 -0.7 31
2018-09-23 13:00:00 27.5 9 Sudoeste 17 Sudoeste 0 908.5 0 32
2018-09-23 12:00:00 25.7 9 Sur 14 Sudeste 0 908.9 0.6 36
2018-09-23 11:00:00 22.8 3 Sudeste 9 Nordeste 0 908.8 0.7 46
2018-09-23 10:00:00 19.4 7 Nordeste 13 Nordeste 0 908.5 0.6 58
2018-09-23 09:00:00 15.2 2 Norte 4 Oeste 0 908.3 0.2 63
2018-09-23 08:00:00 14.8 2 Nordeste 6 Oeste 0 908.1 0 61
2018-09-23 07:00:00 15.1 3 Norte 6 Nordeste 0 907.9 -0.5 60
2018-09-23 06:00:00 15.2 2 Nordeste 11 Norte 0 908.1 -0.7 58
2018-09-23 05:00:00 16 0 Calma 12 Norte 0 908.1 -1 53
2018-09-23 04:00:00 15.9 3 Sur 10 Nordeste 0 908.4 -0.8 54
2018-09-23 03:00:00 16.4 2 Nordeste 15 Norte 0 908.8 -0.4 54
2018-09-23 02:00:00 16.1 2 Noroeste 10 Norte 0 909.1 0.2 59
2018-09-23 01:00:00 16.6 2 Noroeste 15 Nordeste 0 909.2 0.6 57
2018-09-23 00:00:00 16.7 2 Norte 14 Nordeste 0 909.2 1.1 60
2018-09-22 23:00:00 17.6 6 Norte 10 Norte 0 908.9 1.2 55
2018-09-22 22:00:00 18.1 3 Norte 11 Norte 0 908.6 1.3 50
2018-09-22 21:00:00 19.7 5 Nordeste 12 Oeste 0 908.1 1 47
2018-09-22 20:00:00 22.8 7 Oeste 14 Oeste 0 907.7 0.5 43
2018-09-22 19:00:00 25 3 Este 39 Sudoeste 0 907.3 -0.1 37
2018-09-22 18:00:00 26.9 10 Sudoeste 37 Oeste 0 907.1 -0.7 33
2018-09-22 17:00:00 27.4 17 Sudoeste 45 Sudoeste 0 907.2 -0.9 31
2018-09-22 16:00:00 27.7 14 Sudoeste 32 Sudoeste 0 907.4 -0.9 30
2018-09-22 15:00:00 27.1 10 Sur 26 Sudoeste 0 907.8 -0.4 34
2018-09-22 14:00:00 26.6 11 Sudoeste 27 Sudoeste 0 908.1 -0.1 35
2018-09-22 13:00:00 25.5 10 Sudoeste 21 Sudoeste 0 908.3 0.4 37
2018-09-22 12:00:00 23.7 6 Sur 14 Sur 0 908.2 0.7 41
2018-09-22 11:00:00 20.4 4 Nordeste 7 Nordeste 0 908.2 1 54
2018-09-22 10:00:00 17.3 4 Nordeste 8 Nordeste 0 907.9 0.9 65
2018-09-22 09:00:00 13.3 0 Calma 5 Nordeste 0 907.5 0.6 80
2018-09-22 08:00:00 13 0 Calma 8 Norte 0 907.2 0.3 79
2018-09-22 07:00:00 13.3 3 Norte 7 Nordeste 0 907 0.3 76
2018-09-22 06:00:00 14 6 Norte 12 Nordeste 0 906.9 0 73
2018-09-22 05:00:00 13.7 3 Oeste 8 Nordeste 0 906.9 -0.1 74
2018-09-22 04:00:00 14.5 2 Norte 10 Norte 0 906.7 -0.5 68
2018-09-22 03:00:00 14.6 3 Nordeste 8 Norte 0 906.9 -0.3 66
2018-09-22 02:00:00 14.4 2 Noroeste 8 Oeste 0 907 0.3 67
2018-09-22 01:00:00 15 3 Oeste 10 Norte 0 907.2 0.8 63
2018-09-22 00:00:00 15.7 5 Norte 15 Norte 0 907.2 1.6 60
2018-09-21 23:00:00 16.3 5 Noroeste 10 Oeste 0 906.7 1.5 55
2018-09-21 22:00:00 17 6 Norte 15 Nordeste 0 906.4 1.3 46
2018-09-21 21:00:00 18.2 9 Norte 16 Norte 0 905.6 0.7 38
2018-09-21 20:00:00 20.7 5 Norte 13 Oeste 0 905.2 0.5 34
2018-09-21 19:00:00 22.9 6 Oeste 32 Sudoeste 0 905.1 0.4 25
2018-09-21 18:00:00 25 10 Sudoeste 28 Sudoeste 0 904.9 0.1 25
2018-09-21 17:00:00 25.1 6 Norte 26 Sudoeste 0 904.7 -0.3 37
2018-09-21 16:00:00 26 13 Sudoeste 31 Sudoeste 0 904.7 -0.4 25
2018-09-21 15:00:00 26.9 6 Sudoeste 24 Sudoeste 0 904.8 -0.4 27
2018-09-21 14:00:00 26.2 8 Oeste 23 Sudoeste 0 905 0.4 34
2018-09-21 13:00:00 25.8 9 Sudoeste 19 Sudoeste 0 905.1 0.7 39
2018-09-21 12:00:00 23.9 8 Oeste 16 Sudoeste 0 905.2 1.3 50
2018-09-21 11:00:00 22.8 3 Este 13 Nordeste 0 904.6 1.1 54
2018-09-21 10:00:00 20.2 7 Nordeste 20 Norte 0 904.4 1.1 62
2018-09-21 09:00:00 18.1 14 Norte 19 Nordeste 0 903.9 0.7 67
2018-09-21 08:00:00 17.7 5 Norte 22 Norte 0 903.5 0.2 68
2018-09-21 07:00:00 17.3 8 Norte 24 Norte 0 903.3 -0.2 68
2018-09-21 06:00:00 17.7 12 Nordeste 23 Nordeste 0 903.2 -0.6 66
2018-09-21 05:00:00 17.5 10 Nordeste 22 Nordeste 0 903.3 -0.7 67
2018-09-21 04:00:00 18.3 13 Nordeste 23 Norte 0 903.5 -0.6 63
2018-09-21 03:00:00 18 8 Norte 22 Nordeste 0 903.8 -0.5 64
2018-09-21 02:00:00 18.3 12 Norte 22 Nordeste 0 904 -0.1 64
2018-09-21 01:00:00 19 15 Norte 24 Norte 0 904.1 0 61
2018-09-21 00:00:00 18.3 15 Nordeste 22 Nordeste 0 904.3 0.6 64
2018-09-20 23:00:00 18.8 10 Nordeste 22 Nordeste 0 904.1 0.7 62
2018-09-20 22:00:00 19.1 8 Norte 24 Nordeste 0 904.1 0.7 60
2018-09-20 21:00:00 20 10 Norte 23 Nordeste 0 903.7 0 56
2018-09-20 20:00:00 23 6 Norte 15 Sudoeste 0 903.4 -0.6 47
2018-09-20 19:00:00 25 8 Norte 17 Nordeste 0 903.4 -1 39
2018-09-20 18:00:00 26.2 5 Nordeste 33 Sudoeste 0 903.7 -1.3 40
2018-09-20 17:00:00 28 9 Sur 25 Sudoeste 0 904 -1.5 30
2018-09-20 16:00:00 27.6 6 Sudoeste 24 Sudoeste 0 904.4 -1.7 31
2018-09-20 15:00:00 26.2 7 Sur 24 Sur 0 905 -1.4 34
2018-09-20 14:00:00 27.3 8 Sur 19 Sur 0 905.5 -0.9 33
2018-09-20 13:00:00 26.5 9 Sudeste 15 Sur 0 906.1 -0.3 36
2018-09-20 12:00:00 25 8 Sudeste 11 Sudeste 0 906.4 0 41
2018-09-20 11:00:00 22 6 Nordeste 13 Nordeste 0 906.4 0.1 51
2018-09-20 10:00:00 18.9 10 Nordeste 19 Nordeste 0 906.4 0.1 60
2018-09-20 09:00:00 16.4 14 Norte 21 Nordeste 0 906.4 0.1 67
2018-09-20 08:00:00 15.3 6 Norte 19 Nordeste 0 906.3 -0.2 70
2018-09-20 07:00:00 15.7 10 Norte 21 Nordeste 0 906.3 -0.2 68
2018-09-20 06:00:00 15.9 13 Nordeste 23 Norte 0 906.3 -0.6 66
2018-09-20 05:00:00 16.5 7 Norte 18 Norte 0 906.5 -0.4 61
2018-09-20 04:00:00 16.5 11 Norte 22 Norte 0 906.5 -0.5 62
2018-09-20 03:00:00 16.7 15 Norte 23 Nordeste 0 906.9 0 62
2018-09-20 02:00:00 16.7 15 Norte 21 Nordeste 0 906.9 0.1 62
2018-09-20 01:00:00 16.9 15 Norte 20 Nordeste 0 907 0.7 62
2018-09-20 00:00:00 17.9 14 Norte 21 Norte 0 906.9 1 59
2018-09-19 23:00:00 17.9 6 Norte 21 Norte 0 906.8 1 63
2018-09-19 22:00:00 19.4 6 Norte 21 Norte 0 906.3 0.9 58
2018-09-19 21:00:00 20.9 10 Norte 23 Norte 0 905.9 0.8 54
2018-09-19 20:00:00 22.6 9 Nordeste 17 Norte 0 905.8 0.5 51
2018-09-19 19:00:00 24.9 10 Oeste 36 Sudoeste 0 905.4 -0.3 38
2018-09-19 18:00:00 26.5 15 Sudoeste 31 Sudoeste 0 905.1 -0.9 35
2018-09-19 17:00:00 26.1 7 Sudoeste 19 Sudoeste 0 905.3 -1.1 40
2018-09-19 16:00:00 26.8 13 Sudoeste 21 Sudoeste 0 905.7 -1 38
2018-09-19 15:00:00 25.9 8 Sudoeste 20 Sudoeste 0 906 -0.8 42
2018-09-19 14:00:00 25.1 9 Sudoeste 21 Sudoeste 0 906.4 -0.2 49
2018-09-19 13:00:00 23.5 8 Sur 14 Sur 0 906.7 0.4 58
2018-09-19 12:00:00 22.2 9 Sudeste 13 Nordeste 0 906.8 0.8 65
2018-09-19 11:00:00 18.7 7 Nordeste 17 Nordeste 0 906.6 1.3 71
2018-09-19 10:00:00 16 11 Nordeste 21 Norte 0 906.3 1.3 78
2018-09-19 09:00:00 13.6 10 Norte 18 Norte 0 906 1 89
2018-09-19 08:00:00 12.9 4 Norte 14 Nordeste 0.2 905.3 0.6 90
2018-09-19 07:00:00 13.4 7 Norte 16 Norte 0 905 0.1 89
2018-09-19 06:00:00 12.9 3 Norte 16 Norte 0 905 0.1 91
2018-09-19 05:00:00 13 3 Noroeste 12 Nordeste 0 904.7 -0.3 90
2018-09-19 04:00:00 13.6 7 Norte 15 Nordeste 0 904.9 -0.2 89
2018-09-19 03:00:00 13.6 8 Norte 17 Norte 0 904.9 -0.5 90
2018-09-19 02:00:00 13.4 8 Norte 15 Nordeste 0 905 -0.4 90
2018-09-19 01:00:00 13.3 7 Norte 21 Norte 0 905.1 0.3 90
2018-09-19 00:00:00 13.5 12 Nordeste 22 Nordeste 0 905.4 1.5 91
2018-09-18 23:00:00 14.5 11 Norte 27 Norte 0.6 905.4 2.2 89
2018-09-18 22:00:00 14.8 15 Nordeste 24 Nordeste 6.4 904.8 2.3 88
2018-09-18 21:00:00 14.5 15 Nordeste 30 Norte 0 903.9 2.2 88
2018-09-18 20:00:00 15.1 20 Nordeste 42 Nordeste 11.2 903.2 1.8 87
2018-09-18 19:00:00 15.9 31 Nordeste 50 Nordeste 3.4 902.5 0.8 77
2018-09-18 18:00:00 20.5 23 Norte 56 Norte 0 901.7 -0.4 57
2018-09-18 17:00:00 25.6 10 Sudoeste 27 Sudoeste 0 901.4 -0.9 39
2018-09-18 16:00:00 26.6 13 Sur 27 Sur 0 901.7 -1.1 35
2018-09-18 15:00:00 26.3 15 Sur 27 Oeste 0 902.1 -1.1 37
2018-09-18 14:00:00 26.2 13 Sur 28 Sur 0 902.3 -1 31
2018-09-18 13:00:00 24.6 13 Sur 28 Sur 0 902.8 -0.2 39
2018-09-18 12:00:00 24 10 Sur 20 Sur 0 903.2 0.9 44
2018-09-18 11:00:00 22.4 8 Sur 16 Sur 0 903.3 1.3 50
2018-09-18 10:00:00 18.6 8 Nordeste 18 Nordeste 0 903 0.9 63
2018-09-18 09:00:00 15.4 7 Norte 17 Nordeste 0 902.3 0.3 73
2018-09-18 08:00:00 14.8 7 Norte 23 Nordeste 0 902 0.2 74
2018-09-18 07:00:00 15.2 10 Norte 16 Norte 0 902.1 -0.4 72
2018-09-18 06:00:00 14.8 10 Nordeste 22 Nordeste 0 902 -0.7 74
2018-09-18 05:00:00 15.3 12 Nordeste 23 Norte 0 901.8 -0.9 72
2018-09-18 04:00:00 15.2 7 Norte 22 Norte 0 902.5 -0.6 73
2018-09-18 03:00:00 15.7 11 Nordeste 23 Nordeste 0 902.7 -1 73
2018-09-18 02:00:00 16.8 15 Norte 25 Nordeste 0 902.7 -0.9 73
2018-09-18 01:00:00 17 9 Nordeste 19 Norte 0 903.1 -0.3 78
2018-09-18 00:00:00 18.4 9 Nordeste 18 Nordeste 0 903.7 0.8 73
2018-09-17 23:00:00 18.6 11 Norte 26 Norte 0 903.6 1.7 68
2018-09-17 22:00:00 19.1 13 Norte 36 Norte 0 903.4 1.8 63
2018-09-17 21:00:00 19.4 29 Nordeste 40 Norte 0 902.9 1 56
2018-09-17 20:00:00 24 15 Sur 24 Sur 0 901.9 -0.6 39
2018-09-17 19:00:00 23.9 16 Nordeste 32 Nordeste 0 901.6 -1.6 34
2018-09-17 18:00:00 27.3 12 Sur 26 Sur 0 901.9 -1.9 30
2018-09-17 17:00:00 27.3 8 Este 25 Sur 0 902.5 -2 30
2018-09-17 16:00:00 27.5 12 Sur 31 Sur 0 903.2 -1.7 28
2018-09-17 15:00:00 27.7 10 Sudoeste 25 Sur 0 903.8 -1.6 27
2018-09-17 14:00:00 27 12 Sur 28 Sur 0 904.5 -0.9 27
2018-09-17 13:00:00 26.2 15 Sur 26 Sur 0 904.9 -0.9 28
2018-09-17 12:00:00 25.7 8 Sudeste 18 Este 0 905.4 -0.4 31
2018-09-17 11:00:00 23.3 8 Nordeste 17 Nordeste 0 905.4 -0.2 49
2018-09-17 10:00:00 19.1 6 Nordeste 10 Nordeste 0 905.8 0.4 66
2018-09-17 09:00:00 16.7 6 Norte 20 Nordeste 0 905.8 0.4 73
2018-09-17 08:00:00 16.5 11 Norte 15 Norte 0 905.6 0 74
2018-09-17 07:00:00 16.4 2 Oeste 19 Norte 0 905.4 -0.3 73
2018-09-17 06:00:00 16.6 9 Norte 20 Norte 0 905.4 -0.4 73
2018-09-17 05:00:00 16.7 9 Norte 19 Nordeste 0 905.6 -0.6 72
2018-09-17 04:00:00 16.6 6 Norte 19 Nordeste 0 905.7 -0.5 69
2018-09-17 03:00:00 17.2 10 Nordeste 22 Norte 0 905.8 -0.4 65
2018-09-17 02:00:00 17.3 12 Norte 19 Nordeste 0 906.2 0.1 62
2018-09-17 01:00:00 17.7 8 Norte 21 Norte 0 906.2 0.3 56
2018-09-17 00:00:00 18 6 Norte 22 Norte 0 906.2 1 53
2018-09-16 23:00:00 18.8 14 Nordeste 22 Nordeste 0 906.1 1.1 51
2018-09-16 22:00:00 19.4 13 Nordeste 22 Nordeste 0 905.9 1.4 50
2018-09-16 21:00:00 20.8 10 Nordeste 16 Nordeste 0 905.2 0.8 50
2018-09-16 20:00:00 23.9 7 Norte 22 Sudoeste 0 905 0.4 40
2018-09-16 19:00:00 25.9 8 Sudoeste 21 Sudoeste 0 904.5 -0.5 33
2018-09-16 18:00:00 26.2 9 Sudoeste 29 Sudeste 0 904.4 -0.8 33
2018-09-16 17:00:00 27.7 10 Sur 32 Sur 0 904.6 -0.9 33
2018-09-16 16:00:00 27.7 12 Sur 27 Sur 0 905 -0.9 33
2018-09-16 15:00:00 26.9 12 Sudoeste 24 Sudoeste 0 905.2 -1.2 35
2018-09-16 14:00:00 26 8 Sudoeste 24 Sudoeste 0 905.5 -1.1 37
2018-09-16 13:00:00 25 8 Sudoeste 21 Sudoeste 0 905.9 -0.5 39
2018-09-16 12:00:00 23.6 9 Sur 17 Sudoeste 0 906.4 0.1 44
2018-09-16 11:00:00 21 5 Este 8 Este 0 906.6 0.5 53
2018-09-16 10:00:00 17.7 4 Nordeste 18 Nordeste 0 906.4 0.6 67
2018-09-16 09:00:00 15.1 15 Norte 20 Norte 0 906.3 0.9 74
2018-09-16 08:00:00 13.2 4 Nordeste 15 Norte 0 906.1 0.5 82
2018-09-16 07:00:00 13.6 6 Norte 20 Nordeste 0 905.8 -0.3 82
2018-09-16 06:00:00 14.1 10 Norte 18 Norte 0 905.4 -1.1 81
2018-09-16 05:00:00 14.6 8 Norte 18 Nordeste 0 905.6 -1.4 78
2018-09-16 04:00:00 14.4 10 Norte 19 Nordeste 0 906.1 -0.8 78
2018-09-16 03:00:00 15 8 Norte 13 Norte 0 906.5 -0.4 78
2018-09-16 02:00:00 15.4 6 Norte 15 Norte 0 907 0.3 72
2018-09-16 01:00:00 15.9 8 Nordeste 15 Norte 0 906.9 0.6 69
2018-09-16 00:00:00 16.3 10 Norte 18 Norte 0 906.9 1.2 66
2018-09-15 23:00:00 16.7 10 Norte 21 Norte 0 906.7 1 67
2018-09-15 22:00:00 17.5 8 Norte 19 Norte 0 906.3 1 60
2018-09-15 21:00:00 18.7 11 Nordeste 17 Nordeste 0 905.7 0.4 58
2018-09-15 20:00:00 20.9 4 Noroeste 12 Sudoeste 0 905.7 0.6 42
2018-09-15 19:00:00 22 5 Sudoeste 15 Sudoeste 0 905.3 -0.1 51
2018-09-15 18:00:00 22.4 8 Sudoeste 19 Sudoeste 0 905.3 -0.7 49
2018-09-15 17:00:00 22.8 11 Sudoeste 19 Sudoeste 0 905.1 -1.2 47
2018-09-15 16:00:00 23.3 5 Sur 19 Sudeste 0 905.4 -0.8 48
2018-09-15 15:00:00 24.1 13 Sur 23 Sur 0 906 -0.5 45
2018-09-15 14:00:00 24 13 Sur 22 Sur 0 906.3 -0.2 46
2018-09-15 13:00:00 23.7 8 Sur 18 Sur 0 906.2 -0.1 48
2018-09-15 12:00:00 19.6 5 Sur 9 Sur 0 906.5 0.6 55
2018-09-15 11:00:00 18 4 Este 8 Este 0 906.5 1.1 61
2018-09-15 10:00:00 15.4 4 Nordeste 17 Norte 0 906.3 1.2 66
2018-09-15 09:00:00 13.7 3 Noroeste 11 Nordeste 0 905.9 0.7 70
2018-09-15 08:00:00 12.6 2 Nordeste 15 Norte 0 905.4 0.1 73
2018-09-15 07:00:00 13 7 Norte 14 Norte 0 905.1 0 71
2018-09-15 06:00:00 13 6 Norte 17 Nordeste 0 905.2 -0.1 66
2018-09-15 05:00:00 13 4 Nordeste 13 Nordeste 0 905.3 -0.1 66
2018-09-15 04:00:00 13.7 8 Norte 17 Norte 0 905.1 -0.2 63
2018-09-15 03:00:00 13.9 12 Norte 18 Norte 0 905.3 0.2 66
2018-09-15 02:00:00 14.5 8 Norte 14 Norte 0 905.4 0.5 68
2018-09-15 01:00:00 14.4 5 Norte 13 Nordeste 0 905.3 0.5 76
2018-09-15 00:00:00 15.6 10 Norte 14 Norte 0 905.1 0.9 73
2018-09-14 23:00:00 16.5 6 Nordeste 13 Nordeste 0 904.9 0.9 72
2018-09-14 22:00:00 17.8 5 Norte 11 Nordeste 0 904.8 1.1 70
2018-09-14 21:00:00 19.8 4 Nordeste 13 Noroeste 0 904.2 0.4 65
2018-09-14 20:00:00 22.3 4 Sudoeste 24 Sudoeste 0 904 0.1 55
2018-09-14 19:00:00 24.3 12 Sudoeste 28 Sudoeste 0 903.7 -0.4 46
2018-09-14 18:00:00 25.4 11 Sudoeste 22 Sudoeste 0 903.8 -0.3 41
2018-09-14 17:00:00 24.9 12 Sudoeste 28 Sur 0 903.9 -0.6 41
2018-09-14 16:00:00 25.7 14 Sudoeste 31 Sudoeste 0 904.1 -0.7 38
2018-09-14 15:00:00 25.7 17 Sudoeste 25 Sudoeste 0 904.1 -0.8 39
2018-09-14 14:00:00 25 12 Sudoeste 22 Sur 0 904.5 -0.3 43
2018-09-14 13:00:00 24.6 9 Sur 19 Sur 0 904.8 0.4 42
2018-09-14 12:00:00 22.2 10 Sur 14 Sudeste 0 904.9 0.7 53
2018-09-14 11:00:00 19.7 6 Sudeste 9 Sudeste 0 904.8 0.9 59
2018-09-14 10:00:00 16.5 3 Este 8 Nordeste 0 904.4 0.8 72
2018-09-14 09:00:00 12.7 2 Nordeste 5 Nordeste 0 904.2 0.5 81
2018-09-14 08:00:00 11.3 0 Calma 7 Norte 0 903.9 0.2 84
2018-09-14 07:00:00 12.2 2 Sudeste 10 Nordeste 0 903.6 -0.4 83
2018-09-14 06:00:00 11.7 2 Norte 5 Nordeste 0 903.7 -0.7 83
2018-09-14 05:00:00 12.7 4 Oeste 8 Oeste 0 903.7 -0.9 83
2018-09-14 04:00:00 13 0 Calma 9 Norte 0 904 -0.8 82
2018-09-14 03:00:00 13.3 3 Nordeste 10 Nordeste 0 904.4 -0.4 83
2018-09-14 02:00:00 14.2 5 Norte 10 Norte 0 904.6 -0.3 80
2018-09-14 01:00:00 14.4 6 Norte 11 Nordeste 0 904.8 0.1 82
2018-09-14 00:00:00 14.9 3 Norte 14 Norte 0 904.8 0.8 82
2018-09-13 23:00:00 15.7 6 Norte 13 Norte 0 904.9 1 83
2018-09-13 22:00:00 16.6 5 Norte 9 Norte 0 904.7 0.9 81
2018-09-13 21:00:00 18.1 2 Norte 14 Noroeste 0 904 0.2 74
2018-09-13 20:00:00 20.4 8 Oeste 17 Sudoeste 0 903.9 -0.1 64
2018-09-13 19:00:00 22.9 8 Oeste 24 Sudoeste 0 903.8 -0.4 56
2018-09-13 18:00:00 24.5 8 Sudoeste 23 Sudoeste 0 903.8 -0.9 51
2018-09-13 17:00:00 25.5 9 Sudoeste 24 Sudoeste 0 904 -1.1 47
2018-09-13 16:00:00 25.1 12 Sudoeste 25 Sudoeste 0 904.2 -1.3 47
2018-09-13 15:00:00 24.8 10 Sudoeste 22 Sudoeste 0 904.7 -1.1 44
2018-09-13 14:00:00 23.6 9 Sudoeste 22 Oeste 0 905.1 -0.4 49
2018-09-13 13:00:00 22.6 11 Sudoeste 18 Sudoeste 0 905.5 0.3 53
2018-09-13 12:00:00 21.1 8 Sudeste 13 Sudeste 0 905.8 0.4 59
2018-09-13 11:00:00 19.5 4 Sudeste 10 Nordeste 0 905.5 0.4 62
2018-09-13 10:00:00 15.9 8 Nordeste 13 Nordeste 0 905.2 0.2 71
2018-09-13 09:00:00 12.6 3 Nordeste 9 Norte 0 905.4 0.3 86
2018-09-13 08:00:00 11.3 3 Norte 8 Nordeste 0 905.1 -0.2 88
2018-09-13 07:00:00 11.7 6 Norte 8 Nordeste 0 905 -0.5 87
2018-09-13 06:00:00 11.7 0 Calma 10 Norte 0 905.1 -0.3 88
2018-09-13 05:00:00 12 0 Calma 14 Oeste 0 905.3 -0.5 87
2018-09-13 04:00:00 12.4 4 Norte 10 Norte 0 905.5 -0.6 87
2018-09-13 03:00:00 13.2 5 Norte 17 Nordeste 0 905.4 -0.8 83
2018-09-13 02:00:00 13.3 6 Norte 15 Nordeste 0 905.8 -0.6 85
2018-09-13 01:00:00 13.5 5 Norte 19 Norte 0 906.1 0.2 84
2018-09-13 00:00:00 14.3 8 Norte 14 Norte 0 906.2 0.9 82
2018-09-12 23:00:00 14.4 3 Noroeste 15 Norte 0 906.4 0.9 84
2018-09-12 22:00:00 14.8 5 Oeste 12 Nordeste 0 905.9 -0.3 91
2018-09-12 21:00:00 16.3 6 Noroeste 12 Nordeste 0 905.3 -1.4 89
2018-09-12 20:00:00 17 3 Sur 7 Sur 0 905.5 -1.7 88
2018-09-12 19:00:00 17.9 4 Sur 11 Sudoeste 0 906.2 -1 82
2018-09-12 18:00:00 16.7 4 Sur 8 Sur 0 906.7 -1.1 84
2018-09-12 17:00:00 16.3 5 Sur 9 Sur 0 907.2 -0.4 87
2018-09-12 16:00:00 16 4 Nordeste 14 Sur 0.4 907.2 -0.6 87
2018-09-12 15:00:00 16.6 11 Sur 28 Nordeste 0.2 907.8 -0.3 78
2018-09-12 14:00:00 17.9 22 Norte 36 Norte 0 907.6 -0.3 67
2018-09-12 13:00:00 20.4 9 Sudoeste 22 Sudoeste 0 907.8 -0.1 63
2018-09-12 12:00:00 21 7 Oeste 18 Sudoeste 0 908.1 0.3 65
2018-09-12 11:00:00 21 5 Sur 18 Norte 0 907.9 0.2 62
2018-09-12 10:00:00 16.6 3 Nordeste 16 Nordeste 0.2 907.9 0.3 83
2018-09-12 09:00:00 17.3 10 Norte 19 Nordeste 0 907.8 0.3 69
2018-09-12 08:00:00 17.1 7 Norte 12 Norte 0 907.7 -0.2 70
2018-09-12 07:00:00 16.6 4 Norte 13 Norte 0 907.6 -0.4 75
2018-09-12 06:00:00 17.4 7 Norte 13 Norte 0 907.5 -0.9 72
2018-09-12 05:00:00 16.7 4 Norte 13 Norte 0 907.9 -0.8 76
2018-09-12 04:00:00 16.7 7 Nordeste 14 Nordeste 0 908 -0.8 76
2018-09-12 03:00:00 17.5 10 Nordeste 19 Norte 0 908.4 -0.4 73
2018-09-12 02:00:00 17.3 5 Norte 15 Nordeste 0 908.7 -0.2 73
2018-09-12 01:00:00 17.2 5 Norte 15 Norte 0 908.8 0.1 73
2018-09-12 00:00:00 17.6 10 Nordeste 17 Norte 0 908.8 0.3 72
2018-09-11 23:00:00 17.1 7 Norte 18 Norte 0 908.9 0.8 77
2018-09-11 22:00:00 17.4 8 Nordeste 18 Nordeste 0 908.7 0.6 80
2018-09-11 21:00:00 17.8 8 Nordeste 20 Nordeste 0 908.5 0 80
2018-09-11 20:00:00 19.1 3 Nordeste 8 Sudeste 0 908.1 -0.6 74
2018-09-11 19:00:00 20.1 4 Sur 11 Sur 0 908.1 -0.8 68
2018-09-11 18:00:00 20 5 Norte 10 Sur 0 908.5 -0.8 69
2018-09-11 17:00:00 20.4 6 Sudoeste 25 Norte 0 908.7 -0.8 65
2018-09-11 16:00:00 19.5 16 Nordeste 35 Norte 0 908.9 -0.8 61
2018-09-11 15:00:00 22.6 14 Sur 28 Sur 0 909.3 -0.8 46
2018-09-11 14:00:00 24.1 18 Sur 28 Sur 0 909.5 -0.6 37
2018-09-11 13:00:00 24.9 9 Sur 23 Sur 0 909.7 0 37
2018-09-11 12:00:00 23.2 14 Sur 26 Sur 0 910.1 0.5 44
2018-09-11 11:00:00 22.5 3 Sudeste 18 Nordeste 0 910.1 0.8 47
2018-09-11 10:00:00 20 13 Nordeste 26 Nordeste 0 909.7 0.7 53
2018-09-11 09:00:00 17.1 15 Nordeste 23 Norte 0 909.6 0.6 61
2018-09-11 08:00:00 14.7 5 Norte 17 Norte 0 909.3 0.1 70
2018-09-11 07:00:00 15 5 Norte 19 Nordeste 0 909 -0.2 76
2018-09-11 06:00:00 15.1 6 Norte 18 Nordeste 0 909 -0.5 79
2018-09-11 05:00:00 15.4 11 Nordeste 19 Norte 0 909.2 -0.2 80
2018-09-11 04:00:00 15.3 8 Nordeste 18 Norte 0 909.2 -0.4 82
2018-09-11 03:00:00 15.5 6 Norte 17 Nordeste 0 909.5 -0.2 82
2018-09-11 02:00:00 16.1 9 Norte 17 Norte 0 909.4 -0.3 80
2018-09-11 01:00:00 16.5 10 Norte 17 Nordeste 0 909.6 0.3 79
2018-09-11 00:00:00 17.1 5 Norte 19 Nordeste 0 909.7 1.7 76
2018-09-10 23:00:00 17.2 12 Norte 18 Norte 0 909.7 2 76
2018-09-10 22:00:00 18.1 11 Norte 15 Norte 0 909.3 1.7 73
2018-09-10 21:00:00 20.2 4 Noroeste 17 Sudoeste 0 908 0.5 63
2018-09-10 20:00:00 22.2 7 Oeste 21 Oeste 0 907.7 0 56
2018-09-10 19:00:00 23.7 5 Sudoeste 25 Sudoeste 0 907.6 -0.5 50
2018-09-10 18:00:00 23.6 8 Sur 22 Sudoeste 0 907.5 -1 49
2018-09-10 17:00:00 25.8 10 Sudoeste 26 Sudoeste 0 907.7 -1 42
2018-09-10 16:00:00 25.3 8 Sudoeste 23 Sudoeste 0 908.1 -0.7 40
2018-09-10 15:00:00 25.1 10 Sudoeste 27 Sur 0 908.5 -0.4 43
2018-09-10 14:00:00 24.9 11 Sur 24 Sudoeste 0 908.7 0.2 44
2018-09-10 13:00:00 23.6 8 Sudeste 21 Sudeste 0 908.8 0.7 44
2018-09-10 12:00:00 22.4 5 Sudeste 13 Sur 0 908.9 1 49
2018-09-10 11:00:00 20.2 7 Sur 12 Sur 0 908.5 1 57
2018-09-10 10:00:00 16.9 5 Nordeste 15 Nordeste 0 908.1 1.4 66
2018-09-10 09:00:00 13.2 6 Nordeste 11 Nordeste 0 907.9 1.3 82
2018-09-10 08:00:00 13 8 Norte 17 Nordeste 0 907.5 0.8 82
2018-09-10 07:00:00 12.2 2 Norte 9 Norte 0 906.7 -0.4 85
2018-09-10 06:00:00 13.5 4 Norte 12 Norte 0 906.6 -0.5 80
2018-09-10 05:00:00 13.5 3 Norte 14 Norte 0 906.7 -0.9 80
2018-09-10 04:00:00 13.5 2 Norte 10 Norte 0 907.1 -0.1 79
2018-09-10 03:00:00 14.9 5 Norte 17 Norte 0 907.1 0.1 72
2018-09-10 02:00:00 15 6 Nordeste 14 Norte 0 907.6 0.7 73
2018-09-10 01:00:00 15.4 7 Norte 16 Nordeste 0 907.2 1 71
2018-09-10 00:00:00 15.8 10 Nordeste 18 Nordeste 0 907 1.6 66
2018-09-09 23:00:00 16.7 12 Norte 17 Norte 0 906.9 1.6 63
2018-09-09 22:00:00 17.1 5 Norte 11 Norte 0 906.2 1.4 67
2018-09-09 21:00:00 18.8 4 Norte 15 Nordeste 0 905.4 1 63
2018-09-09 20:00:00 21.1 2 Oeste 12 Sudoeste 0 905.3 0.6 55
2018-09-09 19:00:00 22.1 5 Sur 15 Sur 0 904.8 -0.4 52
2018-09-09 18:00:00 22.3 6 Sur 16 Sudoeste 0 904.4 -0.6 48
2018-09-09 17:00:00 23.6 9 Sudoeste 27 Sudoeste 0 904.7 -0.6 43
2018-09-09 16:00:00 22.7 12 Oeste 30 Sudoeste 0 905.2 -0.5 50
2018-09-09 15:00:00 24.3 12 Sudeste 24 Sur 0 905 -0.8 45
2018-09-09 14:00:00 24.2 9 Sur 19 Sudeste 0 905.3 -0.6 44
2018-09-09 13:00:00 23 12 Sudoeste 19 Sur 0 905.7 0.2 47
2018-09-09 12:00:00 22.5 7 Sudeste 13 Sudeste 0 905.8 0.5 51
2018-09-09 11:00:00 19 4 Este 10 Sur 0 905.9 1.1 67
2018-09-09 10:00:00 15.8 3 Este 15 Nordeste 0 905.5 -0.5 85
2018-09-09 09:00:00 13.5 8 Nordeste 23 Norte 0 905.3 -0.7 87
2018-09-09 08:00:00 12.9 15 Nordeste 40 Norte 2.2 904.8 -0.4 88
2018-09-09 07:00:00 13.7 15 Nordeste 24 Nordeste 3.8 906 1.8 90
2018-09-09 06:00:00 14.1 7 Norte 17 Noroeste 5.2 906 1.4 90
2018-09-09 05:00:00 14.7 3 Nordeste 15 Norte 0 905.2 -0.3 81
2018-09-09 04:00:00 14.8 12 Norte 19 Norte 0 904.2 -1.8 83
2018-09-09 03:00:00 15.3 4 Nordeste 17 Nordeste 0 904.6 -0.5 84
2018-09-09 02:00:00 15.9 4 Oeste 23 Sudoeste 0 905.5 1 80
2018-09-09 01:00:00 16.8 6 Oeste 21 Sudoeste 0 906 1.9 76
2018-09-09 00:00:00 17.5 5 Norte 17 Sur 0 905.1 1.4 64
2018-09-08 23:00:00 18.1 10 Nordeste 21 Nordeste 0 904.5 1.1 58
2018-09-08 22:00:00 18.8 13 Norte 19 Norte 0 904.1 1.1 56
2018-09-08 21:00:00 19.6 8 Norte 13 Nordeste 0 903.7 0.7 53
2018-09-08 20:00:00 21.5 9 Sur 25 Sur 0 903.4 0.6 47
2018-09-08 19:00:00 23.5 15 Sur 32 Sur 0 903 -0.2 41
2018-09-08 18:00:00 24 21 Sur 32 Sur 0 903 -0.7 38
2018-09-08 17:00:00 24.5 13 Sur 26 Sur 0 902.8 -1.1 36
2018-09-08 16:00:00 23.9 15 Sur 32 Sur 0 903.2 -0.8 41
2018-09-08 15:00:00 24 12 Sudeste 33 Sur 0 903.7 -0.4 41
2018-09-08 14:00:00 24.1 11 Sur 26 Sur 0 903.9 -0.6 42
2018-09-08 13:00:00 22.8 12 Este 21 Nordeste 0 904 0.4 47
2018-09-08 12:00:00 23 8 Sur 18 Sur 0 904.1 0.9 46
2018-09-08 11:00:00 20.3 9 Sur 15 Sur 0 904.5 1.5 53
2018-09-08 10:00:00 20.1 4 Este 17 Norte 0 903.6 0.7 53
2018-09-08 09:00:00 17 8 Nordeste 13 Nordeste 0 903.2 0.2 60
2018-09-08 08:00:00 15.5 5 Norte 17 Nordeste 0 903 -0.3 64
2018-09-08 07:00:00 15.1 11 Nordeste 19 Norte 0 902.9 -0.9 66
2018-09-08 06:00:00 15.3 12 Norte 29 Norte 0 903 -0.5 67
2018-09-08 05:00:00 15.5 16 Norte 25 Norte 0 903.3 -0.4 67
2018-09-08 04:00:00 14.8 13 Nordeste 21 Nordeste 0 903.8 0.2 70
2018-09-08 03:00:00 14.7 11 Norte 23 Norte 0 903.5 0 71
2018-09-08 02:00:00 15.1 15 Nordeste 21 Nordeste 0 903.7 0.5 72
2018-09-08 01:00:00 15.5 12 Norte 17 Norte 0 903.6 1.1 73
2018-09-08 00:00:00 15.8 8 Norte 15 Norte 0 903.5 1.7 72
2018-09-07 23:00:00 15.9 8 Norte 15 Norte 0 903.2 2 71
2018-09-07 22:00:00 16.8 12 Norte 16 Norte 0 902.5 1.6 68
2018-09-07 21:00:00 18.5 2 Nordeste 14 Oeste 0 901.8 1.1 62
2018-09-07 20:00:00 20.8 4 Oeste 19 Noroeste 0 901.2 0.4 52
2018-09-07 19:00:00 22.5 5 Sudoeste 19 Oeste 0 900.9 -0.2 45
2018-09-07 18:00:00 23.6 5 Sudoeste 24 Sur 0 900.7 -0.6 36
2018-09-07 17:00:00 24.6 9 Nordeste 23 Sur 0 900.8 -0.9 35
2018-09-07 16:00:00 23.8 9 Sudoeste 30 Sudoeste 0 901.1 -1 38
2018-09-07 15:00:00 23.2 10 Sur 26 Sudoeste 0 901.3 -0.9 41
2018-09-07 14:00:00 23.6 11 Sur 24 Sur 0 901.7 -0.3 40
2018-09-07 13:00:00 22.6 11 Sur 21 Sur 0 902.1 0.3 42
2018-09-07 12:00:00 20.9 5 Este 14 Sudeste 0 902.2 0.4 44
2018-09-07 11:00:00 19 6 Sudeste 10 Sudeste 0 902 0.6 51
2018-09-07 10:00:00 15.9 3 Sudeste 9 Nordeste 0 901.8 0.7 61
2018-09-07 09:00:00 12.1 4 Nordeste 9 Norte 0 901.8 0.8 75
2018-09-07 08:00:00 9.8 2 Sudoeste 9 Norte 0 901.4 0.5 83
2018-09-07 07:00:00 10.1 0 Calma 11 Norte 0 901.1 0.1 81
2018-09-07 06:00:00 10.6 4 Norte 11 Norte 0 901 0.2 79
2018-09-07 05:00:00 11 3 Nordeste 8 Norte 0 900.9 -0.1 78
2018-09-07 04:00:00 11.3 4 Norte 11 Norte 0 901 -0.1 77
2018-09-07 03:00:00 11.5 4 Sudoeste 9 Nordeste 0 900.8 -0.3 75
2018-09-07 02:00:00 12 3 Noroeste 9 Norte 0 901 0.2 75
2018-09-07 01:00:00 12.6 4 Noroeste 8 Norte 0 901.1 0.7 73
2018-09-07 00:00:00 13.4 2 Oeste 18 Sudeste 0 901.1 1.2 68
2018-09-06 23:00:00 14.8 8 Este 30 Nordeste 0 900.8 1.3 62
2018-09-06 22:00:00 16.5 17 Norte 40 Norte 0 900.4 1.1 53
2018-09-06 21:00:00 16.8 19 Norte 36 Nordeste 0 899.9 1 53
2018-09-06 20:00:00 17.6 21 Norte 41 Nordeste 0 899.5 0.6 52
2018-09-06 19:00:00 19 21 Nordeste 38 Nordeste 0 899.3 0.1 49
2018-09-06 18:00:00 20.6 20 Norte 35 Norte 0 898.9 -0.8 46
2018-09-06 17:00:00 22.7 12 Oeste 31 Nordeste 0 898.9 -1 40
2018-09-06 16:00:00 22.5 11 Sudoeste 27 Sudoeste 0 899.2 -0.9 43
2018-09-06 15:00:00 20.9 10 Sur 24 Sudoeste 0 899.7 -0.6 56
2018-09-06 14:00:00 20.6 11 Sudoeste 22 Sudoeste 0 899.9 -0.5 56
2018-09-06 13:00:00 20.5 8 Sudoeste 20 Sudoeste 0 900.1 -0.1 52
2018-09-06 12:00:00 17.8 6 Sur 11 Sudeste 0 900.3 0.3 68
2018-09-06 11:00:00 14.4 3 Sudeste 6 Sur 0 900.4 0.7 78
2018-09-06 10:00:00 12.6 0 Calma 4 Norte 0 900.2 0.8 90
2018-09-06 09:00:00 11.6 0 Calma 4 Sudoeste 0 900 0.6 88
2018-09-06 08:00:00 11 3 Nordeste 13 Norte 0 899.7 0.4 88
2018-09-06 07:00:00 11 10 Norte 18 Norte 0 899.4 0 86
2018-09-06 06:00:00 11.1 3 Norte 8 Norte 0 899.4 -0.2 88
2018-09-06 05:00:00 11.9 3 Norte 15 Nordeste 0 899.3 -0.9 85
2018-09-06 04:00:00 11.5 3 Oeste 13 Norte 0 899.4 -1.1 90
2018-09-06 03:00:00 12.2 5 Nordeste 13 Nordeste 0 899.6 -1.1 88
2018-09-06 02:00:00 12.3 6 Norte 12 Nordeste 0 900.2 -0.2 88
2018-09-06 01:00:00 12.5 5 Norte 15 Norte 0 900.5 0.4 87
2018-09-06 00:00:00 12.6 11 Norte 18 Nordeste 0 900.7 1.2 86
2018-09-05 23:00:00 13.3 13 Nordeste 21 Nordeste 0.2 900.4 0.8 85
2018-09-05 22:00:00 13.9 7 Noroeste 33 Nordeste 0.2 900.1 1.7 84
2018-09-05 21:00:00 14.9 22 Norte 38 Nordeste 2 899.5 1.4 76
2018-09-05 20:00:00 16.7 9 Norte 57 Sudoeste 0 899.6 0.9 64
2018-09-05 19:00:00 20.7 8 Oeste 28 Sudoeste 0 898.4 -1 61
2018-09-05 18:00:00 23.8 10 Sudoeste 22 Sudoeste 0 898.1 -1.6 48
2018-09-05 17:00:00 24 13 Sudoeste 31 Sur 0 898.7 -1.7 45
2018-09-05 16:00:00 25.3 12 Sur 29 Sur 0 899.4 -1.5 45
2018-09-05 15:00:00 23.6 14 Sur 26 Sudoeste 0 899.7 -1.4 51
2018-09-05 14:00:00 23.2 10 Sur 25 Sur 0 900.4 -0.9 48
2018-09-05 13:00:00 22.1 8 Sur 19 Sur 0 900.9 -0.3 52
2018-09-05 12:00:00 21.5 6 Sur 10 Sur 0 901.1 0.1 55
2018-09-05 11:00:00 19.3 5 Sur 9 Sur 0 901.3 0.6 70
2018-09-05 10:00:00 15.9 4 Nordeste 9 Nordeste 0 901.2 0.8 86
2018-09-05 09:00:00 14.1 2 Nordeste 13 Nordeste 0 901 0.9 89
2018-09-05 08:00:00 13.6 3 Norte 15 Norte 0 900.7 0.6 86
2018-09-05 07:00:00 13.5 8 Norte 19 Norte 0.2 900.4 0.2 87
2018-09-05 06:00:00 13.4 15 Norte 27 Nordeste 0.4 900.1 -0.5 89
2018-09-05 05:00:00 13.4 4 Norte 13 Norte 0 900.1 -1.4 88
2018-09-05 04:00:00 13.6 4 Norte 14 Norte 0 900.2 -1.2 88
2018-09-05 03:00:00 14.1 10 Norte 16 Norte 0.4 900.6 0.6 86
2018-09-05 02:00:00 14.7 17 Norte 33 Nordeste 0 901.5 0.2 81
2018-09-05 01:00:00 14.4 10 Norte 20 Sur 0.2 901.4 0.7 86
2018-09-05 00:00:00 14.9 6 Norte 47 Este 1.6 900 0.6 83
2018-09-04 23:00:00 16 14 Nordeste 25 Nordeste 2.2 901.3 2.7 83
2018-09-04 22:00:00 19.4 13 Sudoeste 25 Sudoeste 0 900.7 2.5 55
2018-09-04 21:00:00 20.4 7 Sur 15 Sudeste 0 899.4 1.1 53
2018-09-04 20:00:00 23.2 3 Noroeste 19 Sudeste 0 898.6 0.4 47
2018-09-04 19:00:00 24.3 9 Sudoeste 25 Sur 0 898.2 -0.1 42
2018-09-04 18:00:00 25.6 9 Sudeste 22 Sur 0 898.3 -0.2 34
2018-09-04 17:00:00 25.3 14 Sur 38 Sur 0 898.2 -0.7 38
2018-09-04 16:00:00 27.9 11 Sudoeste 30 Sur 0 898.3 -1 32
2018-09-04 15:00:00 26.7 9 Sur 24 Sur 0 898.5 -1 35
2018-09-04 14:00:00 26.3 8 Sur 24 Sur 0 898.9 -0.8 35
2018-09-04 13:00:00 26.4 14 Sur 23 Sur 0 899.3 -0.4 33
2018-09-04 12:00:00 25.2 7 Sur 18 Sudeste 0 899.5 0 36
2018-09-04 11:00:00 22.9 5 Sudeste 11 Nordeste 0 899.7 0.4 48
2018-09-04 10:00:00 18.8 9 Nordeste 19 Nordeste 0 899.7 0.8 59
2018-09-04 09:00:00 16.2 12 Nordeste 21 Nordeste 0 899.5 0.3 66
2018-09-04 08:00:00 14.9 14 Nordeste 22 Nordeste 0 899.3 -0.4 68
2018-09-04 07:00:00 14.8 2 Norte 13 Norte 0 898.9 -0.6 70
2018-09-04 06:00:00 16.4 5 Norte 21 Norte 0 899.2 -0.5 68
2018-09-04 05:00:00 16.7 5 Norte 22 Nordeste 0 899.7 0.4 69
2018-09-04 04:00:00 16.8 11 Nordeste 32 Nordeste 0 899.5 0.2 67
2018-09-04 03:00:00 18.4 15 Nordeste 33 Sur 0 899.7 0.4 63
2018-09-04 02:00:00 19.3 3 Sudoeste 10 Nordeste 0 899.3 0 60
2018-09-04 01:00:00 19.9 3 Oeste 5 Norte 0 899.3 0.1 57
2018-09-04 00:00:00 20.5 2 Nordeste 15 Nordeste 0 899.3 1.3 54
2018-09-03 23:00:00 20.6 11 Norte 15 Norte 0 899.3 1.6 52
2018-09-03 22:00:00 21.1 7 Norte 12 Nordeste 0 899.2 1.8 50
2018-09-03 21:00:00 23.1 4 Noroeste 20 Oeste 0 898 -0.1 46
2018-09-03 20:00:00 25.1 4 Oeste 22 Sudoeste 0 897.7 -0.6 34
2018-09-03 19:00:00 26.8 10 Sudoeste 20 Sudoeste 0 897.4 -1 32
2018-09-03 18:00:00 27.6 12 Sudoeste 26 Sudoeste 0 898.1 -1.2 31
2018-09-03 17:00:00 28 11 Sudoeste 22 Oeste 0 898.3 -1.4 27
2018-09-03 16:00:00 27.5 9 Sur 20 Sur 0 898.4 -1.6 26
2018-09-03 15:00:00 27.2 9 Sudoeste 23 Sudoeste 0 899.3 -1.1 28
2018-09-03 14:00:00 26.8 10 Sudoeste 24 Sudoeste 0 899.7 -0.2 29
2018-09-03 13:00:00 25.9 11 Sudoeste 26 Sudoeste 0 900 -0.1 31
2018-09-03 12:00:00 25.5 15 Sudoeste 29 Sudoeste 0 900.4 -0.1 31
2018-09-03 11:00:00 24.3 4 Sudeste 11 Nordeste 0 899.9 -0.2 29
2018-09-03 10:00:00 20.6 10 Nordeste 18 Nordeste 0 900.1 0.1 30
2018-09-03 09:00:00 17.2 2 Nordeste 15 Norte 0 900.5 0.5 34
2018-09-03 08:00:00 16 10 Norte 22 Nordeste 0 900.1 -0.2 33
2018-09-03 07:00:00 16.3 12 Norte 21 Norte 0 900 -0.5 33
2018-09-03 06:00:00 16.4 17 Norte 21 Norte 0 900 -0.4 34
2018-09-03 05:00:00 16.6 13 Norte 23 Norte 0 900.3 -0.2 32
2018-09-03 04:00:00 16.4 9 Norte 15 Nordeste 0 900.5 -0.1 30
2018-09-03 03:00:00 17 13 Norte 24 Norte 0 900.4 -0.4 29
2018-09-03 02:00:00 17.7 14 Norte 23 Norte 0 900.5 -0.4 27
2018-09-03 01:00:00 18 10 Nordeste 18 Norte 0 900.6 -0.1 27
2018-09-03 00:00:00 18.2 8 Norte 16 Nordeste 0 900.8 0.3 27
2018-09-02 23:00:00 18 4 Norte 18 Norte 0 900.9 0.6 27
2018-09-02 22:00:00 19.8 8 Norte 17 Norte 0 900.7 0.4 24
2018-09-02 21:00:00 22.6 4 Norte 19 Noroeste 0 900.5 0.4 20
2018-09-02 20:00:00 25.2 5 Noroeste 35 Oeste 0 900.3 0.1 17
2018-09-02 19:00:00 27.4 10 Oeste 44 Sudoeste 0 900.3 -0.4 18
2018-09-02 18:00:00 28.5 15 Sudoeste 48 Sudoeste 0 900.1 -1.3 16
2018-09-02 17:00:00 28.7 19 Sudoeste 35 Sudoeste 0 900.2 -1.7 17
2018-09-02 16:00:00 28.6 13 Sudoeste 32 Sudoeste 0 900.7 -1.7 22
2018-09-02 15:00:00 27.8 12 Sudoeste 27 Sudoeste 0 901.4 -1.5 25
2018-09-02 14:00:00 26.5 8 Sudoeste 22 Sudoeste 0 901.9 -1.2 30
2018-09-02 13:00:00 25.1 10 Sudoeste 36 Sudoeste 0 902.4 -0.6 33
2018-09-02 12:00:00 24.4 7 Sur 17 Sur 0 902.9 -0.2 37
2018-09-02 11:00:00 22.6 8 Sudeste 12 Sur 0 903.1 -0.1 42
2018-09-02 10:00:00 18.5 5 Nordeste 14 Norte 0 903 -0.1 52
2018-09-02 09:00:00 16.6 8 Nordeste 14 Nordeste 0 903.1 -0.1 59
2018-09-02 08:00:00 13.6 6 Norte 16 Nordeste 0 903.2 -0.2 67
2018-09-02 07:00:00 14.3 3 Norte 17 Norte 0 903.1 -0.3 63
2018-09-02 06:00:00 14.3 3 Sur 12 Norte 0 903.2 -0.4 61
2018-09-02 05:00:00 15.1 6 Norte 18 Norte 0 903.4 -0.3 57
2018-09-02 04:00:00 15.5 7 Norte 18 Norte 0 903.4 -0.2 53
2018-09-02 03:00:00 15.7 8 Norte 18 Norte 0 903.6 0 51
2018-09-02 02:00:00 16 5 Norte 16 Norte 0 903.7 0.2 49
2018-09-02 01:00:00 16.1 6 Nordeste 16 Norte 0 903.6 0.4 51
2018-09-02 00:00:00 16.7 7 Norte 16 Nordeste 0 903.6 0.9 49
2018-09-01 23:00:00 16.9 3 Noroeste 10 Norte 0 903.5 1 54
2018-09-01 22:00:00 18.5 3 Norte 6 Nordeste 0 903.2 0.8 51
2018-09-01 21:00:00 21.2 3 Nordeste 26 Nordeste 0 902.7 0.3 42
2018-09-01 20:00:00 23.9 16 Norte 32 Norte 0 902.5 -0.1 31
2018-09-01 19:00:00 25.3 18 Nordeste 35 Nordeste 0 902.4 -0.7 26
2018-09-01 18:00:00 26.8 17 Nordeste 33 Nordeste 0 902.4 -1.2 24
2018-09-01 17:00:00 28 9 Este 34 Sur 0 902.6 -1.3 22
2018-09-01 16:00:00 27.7 17 Sudeste 34 Sur 0 903.1 -1.4 26
2018-09-01 15:00:00 27.2 18 Sur 33 Sur 0 903.6 -1.2 30
2018-09-01 14:00:00 26.8 9 Sur 21 Sudoeste 0 903.9 -0.9 29
2018-09-01 13:00:00 24.6 12 Sudeste 18 Sudeste 0 904.5 -0.2 37
2018-09-01 12:00:00 23 8 Sudeste 14 Sudeste 0 904.8 0.1 41
2018-09-01 11:00:00 20.6 7 Sur 12 Sur 0 904.8 0.3 48
2018-09-01 10:00:00 17.8 4 Este 10 Nordeste 0 904.7 0.3 56
2018-09-01 09:00:00 14.6 4 Nordeste 9 Nordeste 0 904.7 0.4 63
2018-09-01 08:00:00 12.2 5 Nordeste 14 Nordeste 0 904.5 0.1 72
2018-09-01 07:00:00 11.9 3 Norte 7 Nordeste 0 904.4 -0.1 73
2018-09-01 06:00:00 12.5 3 Oeste 6 Norte 0 904.3 -0.3 74
2018-09-01 05:00:00 12.3 2 Oeste 8 Nordeste 0 904.4 -0.4 74
2018-09-01 04:00:00 13 3 Norte 7 Nordeste 0 904.5 -0.2 76
2018-09-01 03:00:00 13.3 3 Norte 9 Norte 0 904.6 0 76
2018-09-01 02:00:00 13.9 4 Nordeste 14 Norte 0 904.8 0.3 74
2018-09-01 01:00:00 14.4 2 Norte 12 Nordeste 0 904.7 0.5 72
2018-09-01 00:00:00 14.9 2 Nordeste 6 Norte 0 904.6 1.2 72
2018-08-31 23:00:00 15.5 2 Norte 6 Norte 0 904.5 1.5 69
2018-08-31 22:00:00 17.1 3 Noroeste 7 Nordeste 0 904.2 1.4 63
2018-08-31 21:00:00 19 4 Este 14 Noroeste 0 903.4 0.5 57
2018-08-31 20:00:00 21.6 5 Oeste 27 Oeste 0 903 0.1 49
2018-08-31 19:00:00 24.4 10 Sudoeste 29 Sudoeste 0 902.8 -0.4 40
2018-08-31 18:00:00 25.8 12 Oeste 29 Sur 0 902.9 -0.6 32
2018-08-31 17:00:00 26.9 9 Sur 26 Sudoeste 0 902.9 -0.8 31
2018-08-31 16:00:00 26.7 14 Sudoeste 27 Sudoeste 0 903.2 -0.9 31
2018-08-31 15:00:00 26.4 12 Sudoeste 28 Sudoeste 0 903.5 -0.5 32
2018-08-31 14:00:00 25.2 9 Sudoeste 22 Sudoeste 0 903.7 -0.5 35
2018-08-31 13:00:00 24.5 7 Oeste 19 Sudoeste 0 904.1 0 30
2018-08-31 12:00:00 23 7 Sudeste 12 Sur 0 904 0.1 27
2018-08-31 11:00:00 20.3 6 Sur 11 Sudeste 0 904.2 0.3 38
2018-08-31 10:00:00 16.9 3 Este 7 Nordeste 0 904.1 0.5 45
2018-08-31 09:00:00 13.3 0 Calma 3 Nordeste 0 903.9 0.1 51
2018-08-31 08:00:00 12.4 0 Calma 5 Norte 0 903.9 0 56
2018-08-31 07:00:00 12 0 Calma 4 Sudoeste 0 903.6 -0.7 56
2018-08-31 06:00:00 11.2 0 Calma 6 Oeste 0 903.8 -0.8 60
2018-08-31 05:00:00 11.6 2 Noroeste 9 Norte 0 903.9 -1.1 58
2018-08-31 04:00:00 13.6 6 Norte 15 Nordeste 0 904.3 -0.6 48
2018-08-31 03:00:00 13.2 5 Norte 17 Norte 0 904.6 -0.4 56
2018-08-31 02:00:00 13.7 5 Norte 13 Norte 0 905 -0.1 58
2018-08-31 01:00:00 14.9 8 Norte 15 Nordeste 0 904.9 0.1 55
2018-08-31 00:00:00 15.7 10 Norte 18 Norte 0 905 0.9 56
2018-08-30 23:00:00 16.8 4 Norte 14 Norte 0 905.1 1.4 58
2018-08-30 22:00:00 18.6 5 Norte 16 Oeste 0 904.8 1.2 55
2018-08-30 21:00:00 21.3 6 Noroeste 23 Sudoeste 0 904.1 0.7 45
2018-08-30 20:00:00 23.7 11 Oeste 24 Sudoeste 0 903.7 0 39
2018-08-30 19:00:00 24.6 9 Oeste 31 Sudoeste 0 903.6 -0.5 38
2018-08-30 18:00:00 26.9 5 Sur 23 Sudoeste 0 903.4 -1 30
2018-08-30 17:00:00 27.5 10 Sur 27 Sudoeste 0 903.7 -1 33
2018-08-30 16:00:00 26.7 15 Sudoeste 28 Sudoeste 0 904.1 -1.3 30
2018-08-30 15:00:00 26.6 13 Sudoeste 28 Sudoeste 0 904.4 -1.4 35
2018-08-30 14:00:00 26 10 Sur 19 Sur 0 904.7 -1 34
2018-08-30 13:00:00 24.7 9 Sudeste 17 Sur 0 905.4 -0.1 44
2018-08-30 12:00:00 22.8 6 Sudeste 14 Sudeste 0 905.8 0.3 47
2018-08-30 11:00:00 19.1 8 Sudeste 12 Sur 0 905.7 0.5 58
2018-08-30 10:00:00 17.6 3 Este 7 Nordeste 0 905.5 0.4 62
2018-08-30 09:00:00 14.2 2 Nordeste 4 Nordeste 0 905.5 0.4 74
2018-08-30 08:00:00 12 0 Calma 3 Noroeste 0 905.2 -0.1 80
2018-08-30 07:00:00 12.5 0 Calma 6 Norte 0 905.1 -0.4 76
2018-08-30 06:00:00 12.7 3 Norte 6 Nordeste 0 905.1 -0.7 74
2018-08-30 05:00:00 13.4 3 Sur 8 Norte 0 905.3 -0.4 70
2018-08-30 04:00:00 14 3 Norte 12 Norte 0 905.5 -0.2 67
2018-08-30 03:00:00 14.5 2 Norte 12 Norte 0 905.8 0.5 64
2018-08-30 02:00:00 14.9 3 Norte 13 Nordeste 0 905.7 0.5 64
2018-08-30 01:00:00 16.5 6 Norte 10 Norte 0 905.7 1 56
2018-08-30 00:00:00 16.7 6 Norte 9 Norte 0 905.3 1.3 59
2018-08-29 23:00:00 17.3 3 Nordeste 8 Norte 0 905.2 1.7 63
2018-08-29 22:00:00 19.4 7 Este 23 Norte 0 904.7 1.5 55
2018-08-29 21:00:00 21.1 15 Norte 31 Norte 0 904 0.7 44
2018-08-29 20:00:00 22.3 18 Norte 30 Norte 0 903.5 0.5 41
2018-08-29 19:00:00 23.7 17 Nordeste 30 Norte 0 903.2 0.1 40
2018-08-29 18:00:00 25.9 9 Noroeste 39 Sudoeste 0 903.3 0.1 36
2018-08-29 17:00:00 27.4 15 Sudoeste 33 Sudoeste 0 903 -0.3 30
2018-08-29 16:00:00 27.2 16 Sudoeste 31 Sudoeste 0 903.1 -0.6 30
2018-08-29 15:00:00 27.5 16 Sudoeste 36 Sudoeste 0 903.2 -0.6 30
2018-08-29 14:00:00 27.5 10 Sur 28 Sudoeste 0 903.3 -0.3 33
2018-08-29 13:00:00 26.1 12 Sudoeste 23 Sudoeste 0 903.7 0.5 36
2018-08-29 12:00:00 25.7 8 Sudeste 15 Sudeste 0 903.8 0.9 35
2018-08-29 11:00:00 23.3 5 Sur 10 Sur 0 903.6 1.2 39
2018-08-29 10:00:00 21 3 Sudeste 7 Sudeste 0 903.2 1.2 48
2018-08-29 09:00:00 18.1 5 Nordeste 16 Norte 0 902.9 0.9 55
2018-08-29 08:00:00 16.2 6 Norte 17 Norte 0 902.4 0.3 58
2018-08-29 07:00:00 17.1 12 Norte 18 Nordeste 0 902 -0.3 55
2018-08-29 06:00:00 18 10 Norte 16 Norte 0 902 -0.9 51
2018-08-29 05:00:00 18.3 8 Norte 13 Norte 0 902.1 -0.8 52
2018-08-29 04:00:00 19.6 6 Norte 10 Norte 0 902.3 -0.3 49
2018-08-29 03:00:00 19.4 3 Norte 9 Norte 0 902.9 0.7 53
2018-08-29 02:00:00 19.3 4 Norte 10 Nordeste 0 902.9 1.4 52
2018-08-29 01:00:00 20.3 4 Nordeste 14 Oeste 0 902.6 0.6 51
2018-08-29 00:00:00 22.1 5 Nordeste -- -- 0 902.2 1.6 43
2018-08-28 23:00:00 21.2 -- -- -- -- 0 901.5 2.4 52
2018-08-28 22:00:00 22.4 -- -- -- -- 0 902 1.9 60
2018-08-28 21:00:00 22.9 11 Este -- -- 0 900.6 0.1 60
2018-08-28 20:00:00 27.7 14 Sur 31 Sudeste 0 899.1 -1.9 33
2018-08-28 19:00:00 29.2 -- -- -- -- 0 900.1 -1.3 27
2018-08-28 18:00:00 30.6 19 Sur -- -- 0 900.5 -1.7 27
2018-08-28 17:00:00 30.1 17 Sur 31 Sur 0 901 -1.4 27
2018-08-28 16:00:00 29.6 12 Sur 26 Sur 0 901.4 -1.1 35
2018-08-28 15:00:00 29.9 11 Sur -- -- 0 902.2 -0.3 33
2018-08-28 14:00:00 29.6 20 Sur 29 Sur 0 902.4 -0.5 28
2018-08-28 13:00:00 30.2 12 Sudeste 28 Sur 0 902.5 -0.5 26
2018-08-28 12:00:00 29.9 15 Sudeste 25 Sudeste 0 902.5 -0.2 26
2018-08-28 11:00:00 28.1 9 Sur 22 Sudeste 0 902.9 0.3 32
2018-08-28 10:00:00 24.8 6 Nordeste 19 Norte 0 903 0.5 40
2018-08-28 09:00:00 21 13 Nordeste 23 Norte 0 902.7 -0.1 49
2018-08-28 08:00:00 19.2 15 Nordeste 27 Norte 0 902.6 -0.3 52
2018-08-28 07:00:00 19.5 14 Nordeste 26 Nordeste 0 902.5 -0.5 51
2018-08-28 06:00:00 18.7 6 Norte 21 Norte 0 902.8 -0.5 53
2018-08-28 05:00:00 19.5 15 Norte 23 Norte 0 902.9 -0.2 51
2018-08-28 04:00:00 19.3 15 Nordeste 22 Nordeste 0 903 -0.2 53
2018-08-28 03:00:00 19.5 7 Norte 24 Nordeste 0 903.3 0.1 51
2018-08-28 02:00:00 20.2 17 Nordeste 25 Nordeste 0 903.1 -0.3 48
2018-08-28 01:00:00 20.4 14 Nordeste 23 Norte 0 903.2 0.3 48
2018-08-28 00:00:00 20.6 7 Norte 21 Nordeste 0 903.2 0.6 47
2018-08-27 23:00:00 21.2 6 Norte 23 Norte 0 903.4 1 45
2018-08-27 22:00:00 21.9 10 Norte 23 Nordeste 0 902.9 0.9 44
2018-08-27 21:00:00 24.2 7 Norte 19 Sudoeste 0 902.6 0.6 37
2018-08-27 20:00:00 27.3 8 Sudoeste 22 Sudoeste 0 902.4 0.5 29
2018-08-27 19:00:00 29.1 12 Sudoeste 24 Sudoeste 0 902 -0.1 27
2018-08-27 18:00:00 29.8 11 Sudoeste 27 Sudoeste 0 902 -0.5 27
2018-08-27 17:00:00 29.9 14 Sur 26 Sudoeste 0 901.9 -0.7 26
2018-08-27 16:00:00 30.1 10 Sur 28 Sur 0 902.1 -0.7 26
2018-08-27 15:00:00 29.2 12 Sudoeste 28 Sur 0 902.5 -0.3 27
2018-08-27 14:00:00 28.5 10 Sudoeste 24 Sudoeste 0 902.6 -0.1 29
2018-08-27 13:00:00 27.4 9 Sudoeste 21 Sudoeste 0 902.8 0.2 29
2018-08-27 12:00:00 26.3 8 Sur 16 Sur 0 902.8 0.4 31
2018-08-27 11:00:00 23.9 8 Sur 12 Sur 0 902.7 0.6 35
2018-08-27 10:00:00 19.8 4 Nordeste 12 Nordeste 0 902.6 1.1 48
2018-08-27 09:00:00 16.7 6 Nordeste 10 Norte 0 902.4 1 60
2018-08-27 08:00:00 13.9 2 Norte 8 Nordeste 0 902.1 0.6 64
2018-08-27 07:00:00 13.8 0 Calma 6 Norte 0 901.5 -0.1 65
2018-08-27 06:00:00 14.5 2 Norte 11 Nordeste 0 901.4 -0.5 62
2018-08-27 05:00:00 14.4 0 Calma 8 Nordeste 0 901.5 -0.4 57
2018-08-27 04:00:00 15.4 3 Norte 12 Norte 0 901.6 -0.3 53
2018-08-27 03:00:00 15.1 3 Norte 12 Norte 0 901.9 0.2 54
2018-08-27 02:00:00 15.3 6 Noroeste 13 Norte 0 901.9 0.4 55
2018-08-27 01:00:00 15.3 3 Norte 18 Norte 0 901.9 0.7 54
2018-08-27 00:00:00 17.3 10 Norte 16 Norte 0 901.7 1.1 50
2018-08-26 23:00:00 17.8 7 Norte 19 Norte 0 901.5 1.4 50
2018-08-26 22:00:00 19.6 9 Norte 17 Norte 0 901.2 0.9 47
2018-08-26 21:00:00 22.1 5 Oeste 25 Sudoeste 0 900.6 0.5 40
2018-08-26 20:00:00 23.9 10 Sudoeste 24 Sudoeste 0 900.1 0 29
2018-08-26 19:00:00 25.8 9 Sudoeste 29 Sudoeste 0 900.3 -0.2 26
2018-08-26 18:00:00 25.6 19 Sudoeste 30 Sudoeste 0 900.1 -0.7 27
2018-08-26 17:00:00 26.2 11 Sudoeste 27 Sudoeste 0 900.1 -0.8 26
2018-08-26 16:00:00 25.6 10 Sudoeste 25 Sudoeste 0 900.5 -0.7 26
2018-08-26 15:00:00 24.9 11 Sudoeste 24 Sur 0 900.8 -0.8 28
2018-08-26 14:00:00 23.7 11 Sudoeste 22 Sudoeste 0 900.9 -0.9 31
2018-08-26 13:00:00 23.1 10 Sudoeste 21 Sudoeste 0 901.2 -0.3 33
2018-08-26 12:00:00 21.7 7 Sur 13 Sudeste 0 901.6 0.2 38
2018-08-26 11:00:00 18.7 6 Sudeste 9 Sudeste 0 901.8 0.5 45
2018-08-26 10:00:00 15.2 4 Nordeste 13 Nordeste 0 901.5 0.8 57
2018-08-26 09:00:00 11.4 3 Nordeste 7 Nordeste 0 901.4 1 72
2018-08-26 08:00:00 8.4 0 Calma 8 Oeste 0 901.3 0.8 84
2018-08-26 07:00:00 7.9 0 Calma 7 Oeste 0 900.7 0 86
2018-08-26 06:00:00 8.9 2 Norte 17 Norte 0 900.4 -0.4 81
2018-08-26 05:00:00 9.4 6 Nordeste 11 Nordeste 0 900.5 -0.7 81
2018-08-26 04:00:00 9.1 3 Oeste 8 Noroeste 0 900.7 -0.5 80
2018-08-26 03:00:00 10.1 5 Norte 11 Nordeste 0 900.8 -0.4 77
2018-08-26 02:00:00 10 0 Calma 8 Norte 0 901.2 0.1 78
2018-08-26 01:00:00 10.9 2 Norte 15 Nordeste 0 901.2 0.4 74
2018-08-26 00:00:00 11.8 5 Norte 12 Nordeste 0 901.2 1 70
2018-08-25 23:00:00 12.9 3 Nordeste 6 Este 0 901.1 1.3 66
2018-08-25 22:00:00 14.4 3 Este 10 Sudeste 0 900.8 1.2 60
2018-08-25 21:00:00 16.4 3 Este 14 Nordeste 0 900.2 0.4 53
2018-08-25 20:00:00 19 7 Noroeste 27 Sudoeste 0 899.8 -0.1 43
2018-08-25 19:00:00 20.3 17 Sudoeste 30 Sudoeste 0 899.6 -0.5 42
2018-08-25 18:00:00 21.6 9 Sudoeste 30 Sudoeste 0 899.8 -0.7 38
2018-08-25 17:00:00 22.4 13 Oeste 35 Oeste 0 899.9 -1.1 33
2018-08-25 16:00:00 23.4 15 Sudoeste 31 Sudoeste 0 900.1 -1.1 30
2018-08-25 15:00:00 22.7 14 Sudoeste 27 Sudoeste 0 900.5 -1.4 32
2018-08-25 14:00:00 21.9 9 Oeste 28 Sudoeste 0 901 -1 33
2018-08-25 13:00:00 21.6 11 Sudeste 22 Sudeste 0 901.2 -0.5 36
2018-08-25 12:00:00 19.5 9 Sur 18 Sur 0 901.9 0.3 35
2018-08-25 11:00:00 16.9 8 Sudeste 13 Sur 0 902 0.5 45
2018-08-25 10:00:00 14 4 Sudeste 9 Nordeste 0 901.7 0.3 54
2018-08-25 09:00:00 9.9 5 Nordeste 10 Nordeste 0 901.6 0.1 63
2018-08-25 08:00:00 7.8 4 Norte 10 Noroeste 0 901.5 -0.2 71
2018-08-25 07:00:00 8.5 5 Noroeste 12 Nordeste 0 901.4 -0.5 68
2018-08-25 06:00:00 8.5 4 Norte 8 Nordeste 0 901.5 -0.5 69
2018-08-25 05:00:00 8.7 2 Nordeste 13 Norte 0 901.7 -0.8 74
2018-08-25 04:00:00 9 2 Norte 13 Nordeste 0 901.9 -0.8 71
2018-08-25 03:00:00 9.9 7 Nordeste 14 Nordeste 0 902 -0.8 73
2018-08-25 02:00:00 11 6 Norte 11 Nordeste 0 902.5 -0.7 71
2018-08-25 01:00:00 11.8 8 Norte 12 Norte 0 902.7 -0.3 71
2018-08-25 00:00:00 12.5 5 Norte 13 Norte 0 902.8 0.2 68